METAR Data
IDs: Format: Raw Decoded Include TAF

Data at: 0717 UTC 11 Dec 2018

PAOT 110653Z 02013KT 7SM -SN OVC060 M12/M14 A2900 RMK AO2 SLP819 P0000 T11171144
PAOT 110612Z 01012KT 3SM -SN OVC033 M12/M14 A2900 RMK AO2 P0000 T11171144
PAOT 110553Z 01011KT 2 1/2SM -SN BKN033 OVC070 M12/M14 A2901 RMK AO2 SLP823 P0000 60000 T11171144 11117 21122 56004
PAOT 110453Z 02011KT 8SM -SN OVC046 M12/M15 A2901 RMK AO2 SLP823 P0000 T11221150
PAOT 110353Z 02012KT 10SM -SN FEW027 OVC070 M12/M14 A2901 RMK AO2 SNE23B52 SLP824 P0000 T11171144
PAOT 110255Z 02011KT 3SM -SN FEW024 OVC080 M12/M15 A2902 RMK AO2 P0000 T11221150
PAOT 110253Z 02012KT 2 1/2SM -SN FEW024 OVC080 M12/M15 A2902 RMK AO2 SLP827 P0000 60000 T11221150 57003
PAOT 110251Z 03012KT 3SM -SN FEW024 OVC080 M12/M15 A2902 RMK AO2 P0000
PAOT 110153Z 02014KT 4SM -SN OVC028 M12/M16 A2903 RMK AO2 SNB45 SLP830 P0000 T11221156
PAOT 110150Z 02013KT 5SM -SN OVC028 M12/M16 A2903 RMK AO2 SNB45 P0000
PAOT 110053Z 02013KT 10SM OVC044 M12/M16 A2903 RMK AO2 SLP831 T11221156
PAOT 102353Z 02011KT 10SM BKN055 OVC070 M12/M15 A2905 RMK AO2 SLP836 60000 T11171150 11117 21133 56015
PAOT 102253Z 02011KT 10SM OVC042 M12/M15 A2906 RMK AO2 SNB37E47 SLP842 P0000 T11221150
PAOT 102153Z 02010KT 8SM OVC055 M12/M15 A2907 RMK AO2 SNE53 SLP845 P0000 T11221150
PAOT 102053Z 02011KT 8SM -SN OVC050 M13/M16 A2909 RMK AO2 SNE01B53 SLP851 P0000 60000 T11281156 56002
PAOT 101953Z 02009KT 6SM -SN OVC046 M13/M16 A2909 RMK AO2 SNB28 SLP851 P0000 T11281156
PAOT 101853Z 01009KT 10SM OVC050 M13/M16 A2909 RMK AO2 SNE1756B24E35 SLP851 P0000 T11281156
PAOT 101753Z 03009KT 8SM -SN OVC050 M13/M16 A2910 RMK AO2 SNB44 SLP853 P0000 60000 T11281161 11122 21144 58006
PAOT 101703Z 36006KT 10SM SCT019 SCT042 OVC049 M13/M16 A2911 RMK AO2 T11331161
PAOT 101653Z 36006KT 9SM BKN019 BKN045 OVC055 M13/M16 A2911 RMK AO2 SNB1555E04 SLP857 P0000 T11331161
PAOT 101634Z 03005KT 10SM BKN018 OVC055 M13/M16 A2911 RMK AO2 SNB1555E04 P0000 T11281156
PAOT 101553Z 03007KT 8SM OVC055 M13/M16 A2911 RMK AO2 SNE50 SLP858 P0000 T11331161
PAOT 101453Z AUTO 02008KT 6SM -SN BR FEW019 OVC055 M14/M17 A2912 RMK AO2 SLP860 P0000 60000 T11441167 58005 TSNO $
PAOT 101353Z AUTO 03009KT 4SM -SN OVC050 M14/M17 A2912 RMK AO2 SNB04 SLP861 P0000 T11441172 TSNO $
PAOT 101331Z AUTO 03006KT 5SM -SN FEW021 OVC055 M14/M17 A2913 RMK AO2 SNB04 P0000 T11391167 TSNO $
PAOT 101253Z AUTO 03007KT 9SM OVC020 M14/M17 A2913 RMK AO2 SNE05B24E29 SLP864 P0000 T11391167 TSNO $
PAOT 101153Z AUTO 04006KT 7SM -SN OVC018 M14/M17 A2913 RMK AO2 SNB42 SLP865 P0000 60000 70002 T11441172 11144 21167 50000 TSNO $
PAOT 101053Z AUTO 02006KT 10SM OVC019 M14/M17 A2914 RMK AO2 SLP867 T11441172 TSNO $
PAOT 100953Z AUTO 05005KT 10SM OVC019 M15/M17 A2914 RMK AO2 SLP867 T11501172 TSNO $
PAOT 100853Z 04008KT 10SM OVC020 M15/M17 A2913 RMK AO2 SLP865 T11501172 411221189 51004 $
PAOT 100753Z 04008KT 9SM OVC021 M16/M18 A2913 RMK AO2 SLP863 T11561178 $
PAOT 100653Z 02008KT 7SM OVC022 M16/M18 A2913 RMK AO2 SLP864 T11611183 $
PAOT 100553Z 02008KT 8SM OVC019 M17/M19 A2912 RMK AO2 SNE05 SLP861 P0000 60000 T11671189 11161 21189 53006
PAOT 100453Z 03009KT 6SM -SN BKN021 OVC031 M16/M19 A2911 RMK AO2 SLP857 P0000 T11611189
PAOT 100450Z 03007KT 6SM -SN BKN021 OVC031 M16/M19 A2911 RMK AO2 P0000
PAOT 100353Z 04009KT 4SM -SN BR BKN032 OVC040 M17/M20 A2910 RMK AO2 SNB33 SLP854 P0000 T11721200
PAOT 100253Z 03010KT 10SM BKN050 OVC060 M19/M22 A2910 RMK AO2 SLP854 T11891217 55002
PAOT 100153Z 04008KT 10SM BKN040 M18/M21 A2910 RMK AO2 SLP853 T11781206
PAOT 100053Z 04007KT 10SM BKN038 M16/M19 A2910 RMK AO2 SLP854 T11611189
PAOT 092353Z 06005KT 10SM FEW029 OVC034 M16/M19 A2910 RMK AO2 SNE2255 SLP856 P0000 60000 T11611189 11133 21167 50001
PAOT 092253Z 06005KT 7SM -SN OVC035 M16/M18 A2911 RMK AO2 SNB46 SLP857 P0000 T11561178
PAOT 092153Z 05006KT 9SM OVC034 M15/M17 A2911 RMK AO2 SLP856 T11501172
PAOT 092053Z 05006KT 10SM OVC032 M14/M17 A2910 RMK AO2 SLP855 60000 T11391172 53004
PAOT 091953Z 06010KT 10SM OVC031 M13/M17 A2909 RMK AO2 SNE1858 SLP852 P0000 T11331172